createdAt,value
2018-08-10T00:01:47.807Z,101766.00
2018-08-10T00:04:16.898Z,101766.63
2018-08-10T00:06:46.496Z,101775.80
2018-08-10T00:09:15.530Z,101780.59
2018-08-10T00:11:45.352Z,101776.47
2018-08-10T00:14:14.995Z,101790.58
2018-08-10T00:16:45.557Z,101798.21
2018-08-10T00:19:16.214Z,101794.08
2018-08-10T00:21:45.265Z,101794.48
2018-08-10T00:24:17.208Z,101797.47
2018-08-10T00:26:46.074Z,101791.88
2018-08-10T00:29:17.248Z,101799.01
2018-08-10T00:31:47.058Z,101801.33
2018-08-10T00:34:16.228Z,101807.92
2018-08-10T00:36:46.250Z,101817.23
2018-08-10T00:39:16.128Z,101825.02
2018-08-10T00:41:45.779Z,101827.52
2018-08-10T00:44:16.265Z,101833.18
2018-08-10T00:46:45.961Z,101837.53
2018-08-10T00:49:15.602Z,101841.17
2018-08-10T00:51:46.684Z,101847.77
2018-08-10T00:54:16.250Z,101853.57
2018-08-10T00:56:46.319Z,101858.62
2018-08-10T00:59:19.136Z,101868.41
2018-08-10T01:01:49.180Z,101871.91
2018-08-10T01:04:19.736Z,101871.65
2018-08-10T01:06:48.559Z,101873.45
2018-08-10T01:09:17.953Z,101875.08
2018-08-10T01:11:48.540Z,101876.38
2018-08-10T01:14:17.948Z,101878.18
2018-08-10T01:16:47.331Z,101877.71
2018-08-10T01:19:16.339Z,101886.23
2018-08-10T01:21:45.995Z,101885.84
2018-08-10T01:24:16.473Z,101894.11
2018-08-10T01:26:46.732Z,101897.38
2018-08-10T01:29:16.881Z,101898.80
2018-08-10T01:31:46.655Z,101902.19
2018-08-10T01:34:17.540Z,101911.09
2018-08-10T01:36:48.170Z,101917.08
2018-08-10T01:39:19.380Z,101929.95
2018-08-10T01:41:49.171Z,101921.28
2018-08-10T01:44:19.906Z,101926.46
2018-08-10T01:46:50.232Z,101894.14
2018-08-10T01:49:20.911Z,101930.62
2018-08-10T01:51:49.750Z,101934.75
2018-08-10T01:54:21.362Z,101927.84
2018-08-10T01:56:52.429Z,101930.62
2018-08-10T01:59:23.513Z,101936.75
2018-08-10T02:01:54.836Z,101934.45
2018-08-10T02:04:24.546Z,101938.23
2018-08-10T02:06:56.363Z,101941.16
2018-08-10T02:09:25.326Z,101943.28
2018-08-10T02:11:56.569Z,101947.45
2018-08-10T02:14:26.160Z,101951.73
2018-08-10T02:16:58.659Z,101954.28
2018-08-10T02:19:28.626Z,101954.28
2018-08-10T02:22:00.823Z,101959.16
2018-08-10T02:24:31.379Z,101957.39
2018-08-10T02:27:00.236Z,101953.18
2018-08-10T02:29:28.971Z,101953.88
2018-08-10T02:32:04.508Z,101951.23
2018-08-10T02:34:33.148Z,101950.57
2018-08-10T02:37:04.567Z,101947.45
2018-08-10T02:39:34.176Z,101945.34
2018-08-10T02:42:03.836Z,101944.75
2018-08-10T02:44:34.520Z,101950.23
2018-08-10T02:47:03.963Z,101952.58
2018-08-10T02:49:33.487Z,101954.98
2018-08-10T02:52:02.983Z,101951.31
2018-08-10T02:54:32.118Z,101953.00
2018-08-10T02:57:01.767Z,101942.70
2018-08-10T02:59:31.021Z,101943.97
2018-08-10T03:02:01.072Z,101944.49
2018-08-10T03:04:32.562Z,101942.58
2018-08-10T03:07:02.697Z,101945.57
2018-08-10T03:09:32.129Z,101943.26
2018-08-10T03:12:02.150Z,101939.70
2018-08-10T03:14:33.140Z,101946.36
2018-08-10T03:17:04.012Z,101946.81
2018-08-10T03:19:35.844Z,101944.89
2018-08-10T03:22:06.063Z,101945.50
2018-08-10T03:24:35.372Z,101942.70
2018-08-10T03:27:04.708Z,101953.00
2018-08-10T03:29:34.623Z,101938.91
2018-08-10T03:32:05.188Z,101949.45
2018-08-10T03:34:37.681Z,101947.73
2018-08-10T03:37:10.658Z,101949.97
2018-08-10T03:39:40.775Z,101953.08
2018-08-10T03:42:11.138Z,101949.20
2018-08-10T03:44:40.101Z,101945.34
2018-08-10T03:47:11.050Z,101949.36
2018-08-10T03:49:42.747Z,101954.35
2018-08-10T03:52:11.576Z,101962.25
2018-08-10T03:54:41.704Z,101962.33
2018-08-10T03:57:11.160Z,101958.30
2018-08-10T03:59:40.516Z,101961.81
2018-08-10T04:02:09.293Z,101967.47
2018-08-10T04:04:37.821Z,101968.22
2018-08-10T04:07:07.887Z,101980.31
2018-08-10T04:09:38.890Z,101983.27
2018-08-10T04:12:08.147Z,101995.27
2018-08-10T04:14:38.175Z,102000.20
2018-08-10T04:17:12.960Z,101994.08
2018-08-10T04:19:42.458Z,101998.89
2018-08-10T04:22:14.462Z,101989.20
2018-08-10T04:24:46.052Z,102002.70
2018-08-10T04:27:15.997Z,101997.73
2018-08-10T04:29:45.001Z,101999.28
2018-08-10T04:32:15.031Z,101995.29
2018-08-10T04:34:43.842Z,102009.98
2018-08-10T04:37:12.762Z,102002.74
2018-08-10T04:39:42.723Z,102000.20
2018-08-10T04:42:11.740Z,102001.97
2018-08-10T04:44:40.766Z,102005.72
2018-08-10T04:47:10.526Z,102009.95
2018-08-10T04:49:39.940Z,102008.56
2018-08-10T04:52:08.976Z,102004.75
2018-08-10T04:54:37.961Z,102006.55
2018-08-10T04:57:07.641Z,102009.22
2018-08-10T04:59:36.855Z,102004.79
2018-08-10T05:02:09.209Z,102013.45
2018-08-10T05:04:40.852Z,102012.05
2018-08-10T05:07:09.540Z,102010.90
2018-08-10T05:09:38.281Z,102016.84
2018-08-10T05:12:06.975Z,102025.58
2018-08-10T05:14:36.667Z,102028.38
2018-08-10T05:17:05.515Z,102023.59
2018-08-10T05:19:34.522Z,102025.14
2018-08-10T05:22:03.308Z,102027.86
2018-08-10T05:24:32.770Z,102030.97
2018-08-10T05:27:02.450Z,102033.01
2018-08-10T05:29:31.067Z,102038.75
2018-08-10T05:31:59.604Z,102038.36
2018-08-10T05:34:27.995Z,102034.33
2018-08-10T05:36:57.317Z,102037.94
2018-08-10T05:39:25.744Z,102042.66
2018-08-10T05:41:54.553Z,102041.17
2018-08-10T05:44:23.413Z,102042.97
2018-08-10T05:46:52.199Z,102049.79
2018-08-10T05:49:20.524Z,102050.57
2018-08-10T05:51:50.224Z,102043.67
2018-08-10T05:54:18.890Z,102047.54
2018-08-10T05:56:47.677Z,102056.61
2018-08-10T05:59:16.440Z,102052.80
2018-08-10T06:01:45.844Z,102060.20
2018-08-10T06:04:14.610Z,102057.92
2018-08-10T06:06:43.190Z,102063.16
2018-08-10T06:09:14.309Z,102059.80
2018-08-10T06:11:43.981Z,102067.13
2018-08-10T06:14:13.603Z,102064.77
2018-08-10T06:16:42.324Z,102067.89
2018-08-10T06:19:11.138Z,102072.34
2018-08-10T06:21:40.027Z,102072.97
2018-08-10T06:24:08.712Z,102078.66
2018-08-10T06:26:37.882Z,102088.12
2018-08-10T06:29:08.996Z,102082.17
2018-08-10T06:31:37.484Z,102087.89
2018-08-10T06:34:06.192Z,102083.58
2018-08-10T06:36:34.956Z,102090.33
2018-08-10T06:39:05.862Z,102088.14
2018-08-10T06:41:34.499Z,102085.19
2018-08-10T06:44:04.159Z,102085.25
2018-08-10T06:46:32.875Z,102093.73
2018-08-10T06:49:01.529Z,102088.27
2018-08-10T06:51:30.417Z,102097.06
2018-08-10T06:53:59.119Z,102098.22
2018-08-10T06:56:28.037Z,102102.50
2018-08-10T06:58:59.411Z,102106.05
2018-08-10T07:01:28.789Z,102107.83
2018-08-10T07:03:58.657Z,102105.66
2018-08-10T07:06:27.266Z,102100.77
2018-08-10T07:08:57.618Z,102105.66
2018-08-10T07:11:26.254Z,102104.17
2018-08-10T07:13:55.048Z,102101.61
2018-08-10T07:16:29.315Z,102103.47
2018-08-10T07:18:58.223Z,102105.63
2018-08-10T07:21:27.127Z,102110.01
2018-08-10T07:23:56.780Z,102100.41
2018-08-10T07:26:25.443Z,102110.35
2018-08-10T07:28:54.551Z,102109.83
2018-08-10T07:31:23.979Z,102108.11
2018-08-10T07:33:52.495Z,102113.64
2018-08-10T07:36:24.969Z,102108.21
2018-08-10T07:38:53.554Z,102110.21
2018-08-10T07:41:22.345Z,102113.94
2018-08-10T07:43:51.201Z,102119.21
2018-08-10T07:46:21.094Z,102121.64
2018-08-10T07:48:50.229Z,102125.06
2018-08-10T07:51:20.272Z,102127.72
2018-08-10T07:53:49.272Z,102128.74
2018-08-10T07:56:18.447Z,102131.95
2018-08-10T07:58:47.017Z,102133.78
2018-08-10T08:01:15.776Z,102134.69
2018-08-10T08:03:46.026Z,102133.23
2018-08-10T08:06:14.976Z,102124.94
2018-08-10T08:08:44.604Z,102127.61
2018-08-10T08:11:13.442Z,102132.78
2018-08-10T08:13:42.533Z,102131.33
2018-08-10T08:16:12.919Z,102129.35
2018-08-10T08:18:43.332Z,102127.22
2018-08-10T08:21:14.449Z,102126.61
2018-08-10T08:23:43.959Z,102122.02
2018-08-10T08:26:13.131Z,102126.84
2018-08-10T08:28:42.047Z,102129.29
2018-08-10T08:31:10.923Z,102127.49
2018-08-10T08:33:57.194Z,102135.48
2018-08-10T08:36:26.052Z,102127.25
2018-08-10T08:41:07.263Z,102130.22
2018-08-10T08:44:57.490Z,102139.89
2018-08-10T08:47:26.397Z,102140.56
2018-08-10T08:49:55.022Z,102128.93
2018-08-10T08:52:24.566Z,102138.43
2018-08-10T08:55:39.662Z,102137.27
2018-08-10T08:58:09.118Z,102134.54
2018-08-10T09:00:38.708Z,102133.36
2018-08-10T09:03:18.305Z,102137.16
2018-08-10T09:05:47.427Z,102141.30
2018-08-10T09:08:17.102Z,102142.68
2018-08-10T09:10:45.871Z,102143.91
2018-08-10T09:13:15.163Z,102143.98
2018-08-10T09:15:44.297Z,102142.09
2018-08-10T09:18:13.193Z,102148.59
2018-08-10T09:20:41.956Z,102149.77
2018-08-10T09:23:10.680Z,102158.30
2018-08-10T09:25:39.673Z,102157.75
2018-08-10T09:28:08.581Z,102161.06
2018-08-10T09:30:38.095Z,102160.81
2018-08-10T09:33:07.183Z,102157.50
2018-08-10T09:35:36.215Z,102162.55
2018-08-10T09:38:05.125Z,102155.50
2018-08-10T09:40:33.953Z,102166.86
2018-08-10T09:43:02.924Z,102165.58
2018-08-10T09:45:31.697Z,102160.84
2018-08-10T09:48:00.315Z,102158.52
2018-08-10T09:50:28.954Z,102162.44
2018-08-10T09:53:00.591Z,102162.23
2018-08-10T09:55:37.585Z,102164.28
2018-08-10T09:58:10.605Z,102151.20
2018-08-10T10:00:45.017Z,102149.25
2018-08-10T10:03:20.428Z,102152.98
2018-08-10T10:05:51.167Z,102152.14
2018-08-10T10:08:20.373Z,102147.52
2018-08-10T10:10:49.227Z,102153.38
2018-08-10T10:13:18.228Z,102150.34
2018-08-10T10:15:47.817Z,102154.05
2018-08-10T10:18:17.891Z,102151.79
2018-08-10T10:20:50.256Z,102152.17
2018-08-10T10:23:19.460Z,102151.67
2018-08-10T10:25:49.800Z,102158.44
2018-08-10T10:28:18.417Z,102154.81
2018-08-10T10:30:47.762Z,102145.59
2018-08-10T10:33:18.373Z,102146.44
2018-08-10T10:35:47.213Z,102141.05
2018-08-10T10:38:15.908Z,102139.33
2018-08-10T10:40:47.347Z,102129.36
2018-08-10T10:43:17.323Z,102126.95
2018-08-10T10:45:45.909Z,102133.86
2018-08-10T10:48:14.539Z,102143.21
2018-08-10T10:50:44.589Z,102138.25
2018-08-10T10:53:14.039Z,102129.98
2018-08-10T10:55:43.858Z,102136.71
2018-08-10T10:58:15.352Z,102135.74
2018-08-10T11:00:44.690Z,102146.88
2018-08-10T11:03:13.573Z,102146.02
2018-08-10T11:05:42.625Z,102152.59
2018-08-10T11:08:13.233Z,102153.97
2018-08-10T11:10:41.929Z,102152.93
2018-08-10T11:13:11.446Z,102151.72
2018-08-10T11:15:40.202Z,102148.47
2018-08-10T11:18:10.006Z,102151.73
2018-08-10T11:20:39.025Z,102144.81
2018-08-10T11:23:07.923Z,102145.80
2018-08-10T11:25:37.457Z,102146.44
2018-08-10T11:28:06.394Z,102149.64
2018-08-10T11:30:35.395Z,102145.85
2018-08-10T11:33:04.973Z,102145.19
2018-08-10T11:35:34.589Z,102160.30
2018-08-10T11:38:05.097Z,102163.30
2018-08-10T11:40:35.436Z,102168.05
2018-08-10T11:43:05.499Z,102167.91
2018-08-10T11:45:37.001Z,102167.03
2018-08-10T11:48:06.400Z,102168.64
2018-08-10T11:50:35.345Z,102177.06
2018-08-10T11:53:04.965Z,102138.27
2018-08-10T11:55:33.756Z,102170.01
2018-08-10T11:58:02.458Z,102172.10
2018-08-10T12:00:31.396Z,102166.77
2018-08-10T12:03:01.687Z,102149.91
2018-08-10T12:05:30.367Z,102140.79
2018-08-10T12:07:59.099Z,102154.95
2018-08-10T12:10:28.052Z,102149.91
2018-08-10T12:12:57.650Z,102150.64
2018-08-10T12:15:26.483Z,102151.72
2018-08-10T12:17:55.933Z,102156.53
2018-08-10T12:20:25.069Z,102166.05
2018-08-10T12:22:55.423Z,102156.89
2018-08-10T12:25:24.321Z,102152.30
2018-08-10T12:27:53.036Z,102151.08
2018-08-10T12:30:23.503Z,102154.19
2018-08-10T12:32:52.470Z,102156.93
2018-08-10T12:35:21.301Z,102149.91
2018-08-10T12:37:50.178Z,102151.55
2018-08-10T12:40:19.182Z,102146.53
2018-08-10T12:42:48.827Z,102149.87
2018-08-10T12:45:21.694Z,102152.49
2018-08-10T12:47:50.659Z,102159.70
2018-08-10T12:50:21.006Z,102143.97
2018-08-10T12:52:49.600Z,102145.97
2018-08-10T12:55:18.307Z,102138.71
2018-08-10T12:57:47.038Z,102138.34
2018-08-10T13:00:15.715Z,102139.02
2018-08-10T13:02:44.875Z,102121.67
2018-08-10T13:05:14.559Z,102130.09
2018-08-10T13:07:43.449Z,102123.98
2018-08-10T13:10:12.724Z,102118.63
2018-08-10T13:12:42.005Z,102118.36
2018-08-10T13:15:12.664Z,102126.28
2018-08-10T13:17:42.122Z,102141.41
2018-08-10T13:20:13.309Z,102134.65
2018-08-10T13:22:42.301Z,102131.70
2018-08-10T13:25:11.762Z,102132.48
2018-08-10T13:27:41.426Z,102141.82
2018-08-10T13:30:11.614Z,102131.82
2018-08-10T13:32:40.342Z,102123.71
2018-08-10T13:35:10.214Z,102120.68
2018-08-10T13:37:38.998Z,102119.13
2018-08-10T13:40:07.763Z,102117.05
2018-08-10T13:42:36.509Z,102130.89
2018-08-10T13:45:08.384Z,102134.63
2018-08-10T13:47:37.163Z,102142.30
2018-08-10T13:50:08.843Z,102137.38
2018-08-10T13:52:38.999Z,102136.66
2018-08-10T13:55:09.756Z,102146.44
2018-08-10T13:57:39.256Z,102131.89
2018-08-10T14:00:08.245Z,102119.42
2018-08-10T14:02:37.745Z,102122.16
2018-08-10T14:05:06.575Z,102129.44
2018-08-10T14:07:35.729Z,102127.50
2018-08-10T14:10:05.203Z,102134.69
2018-08-10T14:12:34.011Z,102132.64
2018-08-10T14:15:03.905Z,102141.95
2018-08-10T14:17:33.797Z,102133.15
2018-08-10T14:20:02.915Z,102143.84
2018-08-10T14:22:32.488Z,102147.85
2018-08-10T14:25:01.325Z,102145.44
2018-08-10T14:27:30.322Z,102134.14
2018-08-10T14:30:10.144Z,102128.05
2018-08-10T14:32:39.085Z,102130.17
2018-08-10T14:35:09.327Z,102113.80
2018-08-10T14:37:38.547Z,102103.55
2018-08-10T14:40:11.415Z,102089.86
2018-08-10T14:42:40.439Z,102089.45
2018-08-10T14:45:13.423Z,102088.25
2018-08-10T14:47:43.459Z,102083.83
2018-08-10T14:50:13.808Z,102086.04
2018-08-10T14:52:47.306Z,102077.77
2018-08-10T14:55:17.850Z,102072.78
2018-08-10T14:57:46.716Z,102064.25
2018-08-10T15:00:19.847Z,102062.62
2018-08-10T15:02:49.132Z,102052.42
2018-08-10T15:05:18.272Z,102065.11
2018-08-10T15:07:46.974Z,102052.04
2018-08-10T15:10:16.556Z,102047.58
2018-08-10T15:12:46.041Z,102038.02
2018-08-10T15:15:17.396Z,102031.73
2018-08-10T15:17:46.807Z,102033.59
2018-08-10T15:20:18.369Z,102030.09
2018-08-10T15:22:47.092Z,102022.80
2018-08-10T15:25:16.630Z,102027.50
2018-08-10T15:27:45.440Z,102028.57
2018-08-10T15:30:17.754Z,102020.88
2018-08-10T15:32:46.568Z,102023.95
2018-08-10T15:35:16.528Z,102014.16
2018-08-10T15:37:45.774Z,102015.31
2018-08-10T15:40:17.687Z,102005.02
2018-08-10T15:42:46.343Z,102014.77
2018-08-10T15:45:16.853Z,102007.58
2018-08-10T15:47:46.463Z,101998.81
2018-08-10T15:50:15.491Z,101990.03
2018-08-10T15:52:45.105Z,101999.00
2018-08-10T15:55:14.778Z,101989.66
2018-08-10T15:57:43.571Z,101993.15
2018-08-10T16:00:21.980Z,101987.77
2018-08-10T16:02:51.057Z,101979.59
2018-08-10T16:05:19.919Z,101992.92
2018-08-10T16:07:48.682Z,101980.35
2018-08-10T16:10:18.472Z,101954.25
2018-08-10T16:12:47.177Z,101962.55
2018-08-10T16:15:17.323Z,101962.20
2018-08-10T16:17:46.092Z,101951.72
2018-08-10T16:20:20.597Z,101953.24
2018-08-10T16:22:51.180Z,101962.28
2018-08-10T16:25:20.079Z,101940.82
2018-08-10T16:27:48.969Z,101939.20
2018-08-10T16:30:18.421Z,101950.05
2018-08-10T16:32:47.695Z,101942.02
2018-08-10T16:35:18.507Z,101942.13
2018-08-10T16:37:48.042Z,101934.86
2018-08-10T16:40:18.225Z,101941.93
2018-08-10T16:42:47.248Z,101942.22
2018-08-10T16:45:17.406Z,101939.27
2018-08-10T16:47:46.186Z,101919.80
2018-08-10T16:50:18.045Z,101921.67
2018-08-10T16:52:47.565Z,101925.82
2018-08-10T16:55:18.651Z,101926.05
2018-08-10T16:57:48.999Z,101920.34
2018-08-10T17:00:21.165Z,101927.56
2018-08-10T17:02:51.153Z,101927.20
2018-08-10T17:05:20.879Z,101920.58
2018-08-10T17:07:49.836Z,101929.22
2018-08-10T17:10:19.343Z,101923.65
2018-08-10T17:12:47.875Z,101922.17
2018-08-10T17:15:18.246Z,101919.94
2018-08-10T17:17:47.417Z,101918.39
2018-08-10T17:20:16.503Z,101920.33
2018-08-10T17:22:45.277Z,101919.47
2018-08-10T17:25:18.831Z,101925.02
2018-08-10T17:27:47.635Z,101927.45
2018-08-10T17:30:17.856Z,101917.86
2018-08-10T17:32:46.494Z,101923.00
2018-08-10T17:35:16.120Z,101931.59
2018-08-10T17:37:45.617Z,101929.69
2018-08-10T17:40:14.784Z,101926.86
2018-08-10T17:42:43.300Z,101920.91
2018-08-10T17:45:14.307Z,101925.88
2018-08-10T17:47:43.087Z,101929.95
2018-08-10T17:50:18.687Z,101918.08
2018-08-10T17:52:48.813Z,101926.63
2018-08-10T17:55:17.804Z,101930.28
2018-08-10T17:57:46.807Z,101921.05
2018-08-10T18:00:18.751Z,101938.52
2018-08-10T18:02:48.177Z,101931.02
2018-08-10T18:05:17.691Z,101930.05
2018-08-10T18:08:34.061Z,101939.76
2018-08-10T18:11:02.806Z,101939.88
2018-08-10T18:13:33.252Z,101945.55
2018-08-10T18:16:01.800Z,101942.78
2018-08-10T18:18:32.456Z,101957.56
2018-08-10T18:21:01.376Z,101944.81
2018-08-10T18:23:29.807Z,101943.27
2018-08-10T18:26:00.792Z,101952.44
2018-08-10T18:28:29.598Z,101944.19
2018-08-10T18:30:58.237Z,101940.58
2018-08-10T18:33:27.003Z,101940.36
2018-08-10T18:35:55.759Z,101946.02
2018-08-10T18:38:24.303Z,101947.48
2018-08-10T18:40:52.662Z,101954.26
2018-08-10T18:43:21.207Z,101952.58
2018-08-10T18:45:49.998Z,101955.36
2018-08-10T18:48:18.735Z,101939.95
2018-08-10T18:50:48.714Z,101935.76
2018-08-10T18:53:19.252Z,101933.30
2018-08-10T18:55:48.056Z,101942.67
2018-08-10T18:58:16.591Z,101956.27
2018-08-10T19:00:45.589Z,101957.62
2018-08-10T19:03:14.038Z,101968.23
2018-08-10T19:05:42.682Z,101966.15
2018-08-10T19:08:11.579Z,101969.34
2018-08-10T19:10:40.408Z,101964.95
2018-08-10T19:13:08.974Z,101958.09
2018-08-10T19:15:37.989Z,101963.02
2018-08-10T19:18:08.046Z,101967.22
2018-08-10T19:20:36.717Z,101972.11
2018-08-10T19:23:05.804Z,101974.77
2018-08-10T19:25:34.787Z,101975.81
2018-08-10T19:28:03.849Z,101973.80
2018-08-10T19:30:32.394Z,101973.69
2018-08-10T19:33:00.858Z,101980.55
2018-08-10T19:35:29.956Z,101979.52
2018-08-10T19:37:58.652Z,101969.42
2018-08-10T19:40:27.278Z,101970.49
2018-08-10T19:42:56.210Z,101979.56
2018-08-10T19:45:24.792Z,101980.20
2018-08-10T19:47:53.531Z,101982.72
2018-08-10T19:50:23.054Z,101980.20
2018-08-10T19:52:52.583Z,101988.71
2018-08-10T19:55:20.882Z,101985.15
2018-08-10T19:57:49.583Z,101974.14
2018-08-10T20:00:19.213Z,101982.07
2018-08-10T20:02:49.056Z,101989.83
2018-08-10T20:05:19.448Z,101987.08
2018-08-10T20:07:48.212Z,101983.52
2018-08-10T20:10:16.596Z,101985.70
2018-08-10T20:12:45.520Z,101985.04
2018-08-10T20:15:16.824Z,101989.25
2018-08-10T20:17:45.244Z,101987.02
2018-08-10T20:20:16.161Z,101990.52
2018-08-10T20:22:45.331Z,101988.49
2018-08-10T20:25:14.535Z,101985.91
2018-08-10T20:27:43.497Z,101984.83
2018-08-10T20:30:15.495Z,101991.56
2018-08-10T20:32:44.521Z,101999.66
2018-08-10T20:35:15.871Z,101992.37
2018-08-10T20:37:44.422Z,101997.34
2018-08-10T20:40:16.219Z,101995.91
2018-08-10T20:42:44.771Z,101994.62
2018-08-10T20:45:13.447Z,101996.32
2018-08-10T20:47:42.528Z,101999.02
2018-08-10T20:50:14.633Z,101995.11
2018-08-10T20:52:43.733Z,101996.19
2018-08-10T20:55:12.385Z,101998.63
2018-08-10T20:57:40.853Z,101994.10
2018-08-10T21:00:10.410Z,101990.52
2018-08-10T21:02:39.419Z,101999.68
2018-08-10T21:05:08.065Z,102007.72
2018-08-10T21:07:36.876Z,101995.71
2018-08-10T21:10:08.521Z,101994.45
2018-08-10T21:12:37.315Z,102000.33
2018-08-10T21:15:07.736Z,102002.77
2018-08-10T21:17:36.302Z,102008.84
2018-08-10T21:20:06.966Z,102013.80
2018-08-10T21:22:35.725Z,102018.62
2018-08-10T21:25:05.128Z,102009.62
2018-08-10T21:27:33.693Z,102011.52
2018-08-10T21:30:02.490Z,101999.75
2018-08-10T21:32:31.083Z,101999.25
2018-08-10T21:34:59.667Z,101993.97
2018-08-10T21:37:28.107Z,101986.97
2018-08-10T21:39:56.612Z,101984.91
2018-08-10T21:42:25.044Z,101977.75
2018-08-10T21:44:53.320Z,101973.59
2018-08-10T21:47:21.761Z,101972.73
2018-08-10T21:49:50.478Z,101979.54
2018-08-10T21:52:18.861Z,101993.98
2018-08-10T21:54:47.538Z,102006.01
2018-08-10T21:57:16.052Z,101998.86
2018-08-10T21:59:44.468Z,102010.74
2018-08-10T22:02:13.523Z,102016.67
2018-08-10T22:04:41.952Z,102031.01
2018-08-10T22:07:10.352Z,102057.19
2018-08-10T22:09:38.814Z,102059.25
2018-08-10T22:12:07.330Z,102052.14
2018-08-10T22:14:41.398Z,102060.93
2018-08-10T22:17:15.561Z,102063.09
2018-08-10T22:19:44.066Z,102069.60
2018-08-10T22:22:12.776Z,102066.00
2018-08-10T22:24:41.206Z,102061.81
2018-08-10T22:27:09.619Z,102057.20
2018-08-10T22:29:37.981Z,102055.56
2018-08-10T22:32:06.423Z,102065.34
2018-08-10T22:34:34.928Z,102070.48
2018-08-10T22:37:03.656Z,102084.46
2018-08-10T22:39:32.094Z,102083.16
2018-08-10T22:42:00.480Z,102083.86
2018-08-10T22:44:28.871Z,102078.75
2018-08-10T22:46:57.380Z,102073.90
2018-08-10T22:49:25.742Z,102073.47
2018-08-10T22:51:54.401Z,102076.39
2018-08-10T22:54:22.828Z,102075.08
2018-08-10T22:56:51.336Z,102081.56
2018-08-10T22:59:20.056Z,102078.92
2018-08-10T23:01:48.509Z,102075.68
2018-08-10T23:04:17.143Z,102079.86
2018-08-10T23:06:45.615Z,102074.97
2018-08-10T23:09:14.014Z,102049.44
2018-08-10T23:11:42.470Z,102060.36
2018-08-10T23:14:11.100Z,102056.61
2018-08-10T23:16:39.756Z,102057.81
2018-08-10T23:19:08.173Z,102064.54
2018-08-10T23:21:36.619Z,102075.10
2018-08-10T23:24:05.317Z,102070.53
2018-08-10T23:26:33.842Z,102082.22
2018-08-10T23:29:02.498Z,102078.62
2018-08-10T23:31:31.206Z,102085.14
2018-08-10T23:33:59.660Z,102075.08
2018-08-10T23:36:28.143Z,102065.08
2018-08-10T23:38:56.855Z,102060.12
2018-08-10T23:41:25.450Z,102062.70
2018-08-10T23:43:54.106Z,102067.08
2018-08-10T23:46:22.620Z,102067.97
2018-08-10T23:48:51.369Z,102069.96
2018-08-10T23:51:19.923Z,102078.19
2018-08-10T23:53:48.400Z,102074.01
2018-08-10T23:56:16.772Z,102071.94
2018-08-10T23:58:45.373Z,102076.02
